createdAt,value
2023-05-09T00:00:11.861Z,99.99
2023-05-09T00:01:11.999Z,99.99
2023-05-09T00:02:11.903Z,99.99
2023-05-09T00:03:11.876Z,99.99
2023-05-09T00:04:11.865Z,99.99
2023-05-09T00:05:11.945Z,99.99
2023-05-09T00:06:11.828Z,99.99
2023-05-09T00:07:11.776Z,99.99
2023-05-09T00:08:12.061Z,99.99
2023-05-09T00:09:11.749Z,99.99
2023-05-09T00:10:11.748Z,99.99
2023-05-09T00:11:12.171Z,99.99
2023-05-09T00:12:12.222Z,99.99
2023-05-09T00:13:12.341Z,99.99
2023-05-09T00:14:11.689Z,99.99
2023-05-09T00:15:11.864Z,99.99
2023-05-09T00:16:11.722Z,99.99
2023-05-09T00:17:11.638Z,99.99
2023-05-09T00:18:11.641Z,99.99
2023-05-09T00:19:12.500Z,99.99
2023-05-09T00:20:11.636Z,99.99
2023-05-09T00:21:11.610Z,99.99
2023-05-09T00:22:11.589Z,99.99
2023-05-09T00:23:11.579Z,99.99
2023-05-09T00:24:11.557Z,99.99
2023-05-09T00:25:11.646Z,99.99
2023-05-09T00:26:12.280Z,99.99
2023-05-09T00:27:12.445Z,99.99
2023-05-09T00:28:11.501Z,99.99
2023-05-09T00:29:11.507Z,99.99
2023-05-09T00:30:11.513Z,99.99
2023-05-09T00:31:11.470Z,99.99
2023-05-09T00:32:11.496Z,99.99
2023-05-09T00:33:11.486Z,99.99
2023-05-09T00:34:11.483Z,99.99
2023-05-09T00:35:11.513Z,99.99
2023-05-09T00:36:11.414Z,99.99
2023-05-09T00:37:11.391Z,99.99
2023-05-09T00:38:11.389Z,99.99
2023-05-09T00:39:11.353Z,99.99
2023-05-09T00:40:11.386Z,99.99
2023-05-09T00:41:11.396Z,99.99
2023-05-09T00:42:12.270Z,99.99
2023-05-09T00:43:11.439Z,99.99
2023-05-09T00:44:11.347Z,99.99
2023-05-09T00:45:11.350Z,99.99
2023-05-09T00:46:11.711Z,99.99
2023-05-09T00:47:11.259Z,99.99
2023-05-09T00:48:11.274Z,99.99
2023-05-09T00:49:11.237Z,99.99
2023-05-09T00:50:11.242Z,99.99
2023-05-09T00:51:11.758Z,99.99
2023-05-09T00:52:11.794Z,99.99
2023-05-09T00:53:11.208Z,99.99
2023-05-09T00:54:11.169Z,99.99
2023-05-09T00:55:11.233Z,99.99
2023-05-09T00:56:11.968Z,99.99
2023-05-09T00:57:11.859Z,99.99
2023-05-09T00:58:12.043Z,99.99
2023-05-09T00:59:11.106Z,99.99
2023-05-09T01:00:11.095Z,99.99
2023-05-09T01:01:12.021Z,99.99
2023-05-09T01:02:11.121Z,99.99
2023-05-09T01:03:11.130Z,99.99
2023-05-09T01:04:11.049Z,99.99
2023-05-09T01:05:11.020Z,99.99
2023-05-09T01:06:11.024Z,99.99
2023-05-09T01:07:11.031Z,99.99
2023-05-09T01:08:11.841Z,99.98
2023-05-09T01:09:10.969Z,99.77
2023-05-09T01:10:10.968Z,99.82
2023-05-09T01:11:10.972Z,99.93
2023-05-09T01:12:11.711Z,99.93
2023-05-09T01:13:11.886Z,99.93
2023-05-09T01:14:10.938Z,99.93
2023-05-09T01:15:10.919Z,99.93
2023-05-09T01:16:10.976Z,99.72
2023-05-09T01:17:10.878Z,99.52
2023-05-09T01:18:10.897Z,99.52
2023-05-09T01:19:10.839Z,99.21
2023-05-09T01:20:10.829Z,99.11
2023-05-09T01:21:10.909Z,98.90
2023-05-09T01:22:10.804Z,98.90
2023-05-09T01:23:10.776Z,98.60
2023-05-09T01:24:10.788Z,98.60
2023-05-09T01:25:10.795Z,98.70
2023-05-09T01:26:10.787Z,98.60
2023-05-09T01:27:10.737Z,98.39
2023-05-09T01:28:10.761Z,98.49
2023-05-09T01:29:11.237Z,98.49
2023-05-09T01:30:11.274Z,98.60
2023-05-09T01:31:10.712Z,98.39
2023-05-09T01:32:10.685Z,97.98
2023-05-09T01:33:10.742Z,98.08
2023-05-09T01:34:10.656Z,98.19
2023-05-09T01:35:10.670Z,98.19
2023-05-09T01:36:10.637Z,98.29
2023-05-09T01:37:10.612Z,98.29
2023-05-09T01:38:10.589Z,98.29
2023-05-09T01:39:10.632Z,98.19
2023-05-09T01:40:10.600Z,97.78
2023-05-09T01:41:11.286Z,97.88
2023-05-09T01:42:10.541Z,97.88
2023-05-09T01:43:11.296Z,97.67
2023-05-09T01:44:11.503Z,97.57
2023-05-09T01:45:10.519Z,97.57
2023-05-09T01:46:11.275Z,97.47
2023-05-09T01:47:10.481Z,97.67
2023-05-09T01:48:10.540Z,97.57
2023-05-09T01:49:10.482Z,97.57
2023-05-09T01:50:10.442Z,97.37
2023-05-09T01:51:10.443Z,97.37
2023-05-09T01:52:11.193Z,97.47
2023-05-09T01:53:10.432Z,97.37
2023-05-09T01:54:10.416Z,97.57
2023-05-09T01:55:10.371Z,97.47
2023-05-09T01:56:10.364Z,97.67
2023-05-09T01:57:10.460Z,97.88
2023-05-09T01:58:10.360Z,97.78
2023-05-09T01:59:11.251Z,97.78
2023-05-09T02:00:10.435Z,97.78
2023-05-09T02:01:10.371Z,97.67
2023-05-09T02:02:10.523Z,97.57
2023-05-09T02:03:10.569Z,97.52
2023-05-09T02:04:10.256Z,97.41
2023-05-09T02:05:10.270Z,97.41
2023-05-09T02:06:10.216Z,97.52
2023-05-09T02:07:10.297Z,97.52
2023-05-09T02:08:10.747Z,97.41
2023-05-09T02:09:10.793Z,97.31
2023-05-09T02:10:10.183Z,97.31
2023-05-09T02:11:10.322Z,97.31
2023-05-09T02:12:10.226Z,97.41
2023-05-09T02:13:10.455Z,97.41
2023-05-09T02:14:10.141Z,97.56
2023-05-09T02:15:11.036Z,97.56
2023-05-09T02:16:10.539Z,97.56
2023-05-09T02:17:10.110Z,97.56
2023-05-09T02:18:10.094Z,97.66
2023-05-09T02:19:10.894Z,97.77
2023-05-09T02:20:10.812Z,97.77
2023-05-09T02:21:10.133Z,97.77
2023-05-09T02:22:10.055Z,98.02
2023-05-09T02:23:10.009Z,98.02
2023-05-09T02:24:09.988Z,98.02
2023-05-09T02:25:09.986Z,98.12
2023-05-09T02:26:10.008Z,98.22
2023-05-09T02:27:09.981Z,98.43
2023-05-09T02:28:09.950Z,98.53
2023-05-09T02:29:10.724Z,98.43
2023-05-09T02:30:10.874Z,98.63
2023-05-09T02:31:09.961Z,98.74
2023-05-09T02:32:10.053Z,98.63
2023-05-09T02:33:10.877Z,98.63
2023-05-09T02:34:10.740Z,98.63
2023-05-09T02:35:09.894Z,98.74
2023-05-09T02:36:09.891Z,98.53
2023-05-09T02:37:09.834Z,98.53
2023-05-09T02:38:09.811Z,98.53
2023-05-09T02:39:09.800Z,98.53
2023-05-09T02:40:09.818Z,98.53
2023-05-09T02:41:10.045Z,98.58
2023-05-09T02:42:09.756Z,98.47
2023-05-09T02:43:09.742Z,98.47
2023-05-09T02:44:09.772Z,98.47
2023-05-09T02:45:10.182Z,98.68
2023-05-09T02:46:10.272Z,98.58
2023-05-09T02:47:09.956Z,98.58
2023-05-09T02:48:09.740Z,98.68
2023-05-09T02:49:11.398Z,98.88
2023-05-09T02:50:10.740Z,99.13
2023-05-09T02:51:09.646Z,98.93
2023-05-09T02:52:10.471Z,99.13
2023-05-09T02:53:09.682Z,99.03
2023-05-09T02:54:09.637Z,99.03
2023-05-09T02:55:09.598Z,99.24
2023-05-09T02:56:09.609Z,99.49
2023-05-09T02:57:09.556Z,99.49
2023-05-09T02:58:14.241Z,99.59
2023-05-09T02:59:10.512Z,99.69
2023-05-09T03:00:10.325Z,99.99
2023-05-09T03:01:09.639Z,99.99
2023-05-09T03:02:09.514Z,99.99
2023-05-09T03:03:10.354Z,99.99
2023-05-09T03:04:09.457Z,99.99
2023-05-09T03:05:09.393Z,99.99
2023-05-09T03:06:09.395Z,99.99
2023-05-09T03:07:09.585Z,99.99
2023-05-09T03:08:09.469Z,99.99
2023-05-09T03:09:09.931Z,99.99
2023-05-09T03:10:09.347Z,99.99
2023-05-09T03:11:09.703Z,99.99
2023-05-09T03:12:10.167Z,99.99
2023-05-09T03:13:10.120Z,99.99
2023-05-09T03:14:09.340Z,99.99
2023-05-09T03:15:09.266Z,99.99
2023-05-09T03:16:09.337Z,99.99
2023-05-09T03:17:09.413Z,99.99
2023-05-09T03:18:09.531Z,99.99
2023-05-09T03:19:09.233Z,99.99
2023-05-09T03:20:10.136Z,99.99
2023-05-09T03:21:09.203Z,99.99
2023-05-09T03:22:09.225Z,99.99
2023-05-09T03:23:09.164Z,99.99
2023-05-09T03:24:09.160Z,99.99
2023-05-09T03:25:09.736Z,99.99
2023-05-09T03:26:09.138Z,99.99
2023-05-09T03:27:09.155Z,99.99
2023-05-09T03:28:09.104Z,99.99
2023-05-09T03:29:09.100Z,99.99
2023-05-09T03:30:09.133Z,99.99
2023-05-09T03:31:09.905Z,99.99
2023-05-09T03:32:09.781Z,99.99
2023-05-09T03:33:09.945Z,99.99
2023-05-09T03:34:09.844Z,99.99
2023-05-09T03:35:09.034Z,99.99
2023-05-09T03:36:09.932Z,99.99
2023-05-09T03:37:08.993Z,99.99
2023-05-09T03:38:08.978Z,99.99
2023-05-09T03:39:09.009Z,99.99
2023-05-09T03:40:08.951Z,99.99
2023-05-09T03:41:08.990Z,99.99
2023-05-09T03:42:09.856Z,99.99
2023-05-09T03:43:08.906Z,99.99
2023-05-09T03:44:08.905Z,99.99
2023-05-09T03:45:08.915Z,99.99
2023-05-09T03:46:09.839Z,99.99
2023-05-09T03:47:08.945Z,99.99
2023-05-09T03:48:08.953Z,99.99
2023-05-09T03:49:09.702Z,99.99
2023-05-09T03:50:08.874Z,99.99
2023-05-09T03:51:09.012Z,99.99
2023-05-09T03:52:08.808Z,99.99
2023-05-09T03:53:08.788Z,99.99
2023-05-09T03:54:08.769Z,99.99
2023-05-09T03:55:08.777Z,99.99
2023-05-09T03:56:08.746Z,99.99
2023-05-09T03:57:08.730Z,99.99
2023-05-09T03:58:08.733Z,99.99
2023-05-09T03:59:08.750Z,99.99
2023-05-09T04:00:08.740Z,99.99
2023-05-09T04:01:08.705Z,99.99
2023-05-09T04:02:09.187Z,99.99
2023-05-09T04:03:09.349Z,99.99
2023-05-09T04:04:09.309Z,99.99
2023-05-09T04:05:08.693Z,99.99
2023-05-09T04:06:08.616Z,99.99
2023-05-09T04:07:08.593Z,99.99
2023-05-09T04:08:08.604Z,99.99
2023-05-09T04:09:09.305Z,99.99
2023-05-09T04:10:08.587Z,99.99
2023-05-09T04:11:08.552Z,99.99
2023-05-09T04:12:08.541Z,99.99
2023-05-09T04:13:08.729Z,99.99
2023-05-09T04:14:08.552Z,99.99
2023-05-09T04:15:09.255Z,99.84
2023-05-09T04:16:08.509Z,99.43
2023-05-09T04:17:09.477Z,99.02
2023-05-09T04:18:08.538Z,98.92
2023-05-09T04:19:08.960Z,98.82
2023-05-09T04:20:09.284Z,98.71
2023-05-09T04:21:08.419Z,98.46
2023-05-09T04:22:08.405Z,98.36
2023-05-09T04:23:08.426Z,97.85
2023-05-09T04:24:08.408Z,97.74
2023-05-09T04:25:08.389Z,97.19
2023-05-09T04:26:09.035Z,97.29
2023-05-09T04:27:08.408Z,96.67
2023-05-09T04:28:08.373Z,96.57
2023-05-09T04:29:09.246Z,96.47
2023-05-09T04:30:08.348Z,95.95
2023-05-09T04:31:08.472Z,95.91
2023-05-09T04:32:08.377Z,95.91
2023-05-09T04:33:08.388Z,95.81
2023-05-09T04:34:09.172Z,95.40
2023-05-09T04:35:08.458Z,95.46
2023-05-09T04:36:08.271Z,94.95
2023-05-09T04:37:08.345Z,95.15
2023-05-09T04:38:08.217Z,94.12
2023-05-09T04:39:08.219Z,94.12
2023-05-09T04:40:08.188Z,94.70
2023-05-09T04:41:08.197Z,94.49
2023-05-09T04:42:08.212Z,94.39
2023-05-09T04:43:08.143Z,94.18
2023-05-09T04:44:08.131Z,93.63
2023-05-09T04:45:08.140Z,93.43
2023-05-09T04:46:08.178Z,93.52
2023-05-09T04:47:08.893Z,93.38
2023-05-09T04:48:08.396Z,93.07
2023-05-09T04:49:08.800Z,92.93
2023-05-09T04:50:08.061Z,92.11
2023-05-09T04:51:08.874Z,91.76
2023-05-09T04:52:08.036Z,91.05
2023-05-09T04:53:08.925Z,91.11
2023-05-09T04:54:08.829Z,89.98
2023-05-09T04:55:08.030Z,90.19
2023-05-09T04:56:08.012Z,89.63
2023-05-09T04:57:17.370Z,88.98
2023-05-09T04:58:08.955Z,89.18
2023-05-09T04:59:08.293Z,88.32
2023-05-09T05:00:07.980Z,88.02
2023-05-09T05:01:07.898Z,87.10
2023-05-09T05:02:07.945Z,86.55
2023-05-09T05:03:08.786Z,85.43
2023-05-09T05:04:07.940Z,85.02
2023-05-09T05:05:11.939Z,85.84
2023-05-09T05:06:08.696Z,85.80
2023-05-09T05:07:08.696Z,84.98
2023-05-09T05:08:08.729Z,85.55
2023-05-09T05:09:08.665Z,84.74
2023-05-09T05:10:07.835Z,83.51
2023-05-09T05:11:07.762Z,83.42
2023-05-09T05:12:09.547Z,83.27
2023-05-09T05:13:07.764Z,82.19
2023-05-09T05:14:07.770Z,83.17
2023-05-09T05:15:08.004Z,81.68
2023-05-09T05:16:07.767Z,82.80
2023-05-09T05:17:07.704Z,83.21
2023-05-09T05:18:07.718Z,83.42
2023-05-09T05:19:08.145Z,83.51
2023-05-09T05:20:07.669Z,82.90
2023-05-09T05:21:08.226Z,82.90
2023-05-09T05:22:07.645Z,82.70
2023-05-09T05:23:07.617Z,83.01
2023-05-09T05:24:08.338Z,82.80
2023-05-09T05:25:07.622Z,82.50
2023-05-09T05:26:08.315Z,82.90
2023-05-09T05:27:07.568Z,83.35
2023-05-09T05:28:07.582Z,83.42
2023-05-09T05:29:07.544Z,82.90
2023-05-09T05:30:07.697Z,83.15
2023-05-09T05:31:07.576Z,83.65
2023-05-09T05:32:07.506Z,83.65
2023-05-09T05:33:07.568Z,83.65
2023-05-09T05:34:07.493Z,83.76
2023-05-09T05:35:07.503Z,83.82
2023-05-09T05:36:07.454Z,84.43
2023-05-09T05:37:07.495Z,83.72
2023-05-09T05:38:07.450Z,83.01
2023-05-09T05:39:07.386Z,83.11
2023-05-09T05:40:07.397Z,82.56
2023-05-09T05:41:07.496Z,82.26
2023-05-09T05:42:07.495Z,82.46
2023-05-09T05:43:07.369Z,82.12
2023-05-09T05:44:07.330Z,81.71
2023-05-09T05:45:07.487Z,81.26
2023-05-09T05:46:07.536Z,80.96
2023-05-09T05:47:07.359Z,80.96
2023-05-09T05:48:07.318Z,80.85
2023-05-09T05:49:07.269Z,81.33
2023-05-09T05:50:07.370Z,80.62
2023-05-09T05:51:07.401Z,80.82
2023-05-09T05:52:07.254Z,80.72
2023-05-09T05:53:07.548Z,81.93
2023-05-09T05:54:07.211Z,81.12
2023-05-09T05:55:07.205Z,81.09
2023-05-09T05:56:07.209Z,81.79
2023-05-09T05:57:07.162Z,80.78
2023-05-09T05:58:07.403Z,80.47
2023-05-09T05:59:07.542Z,80.03
2023-05-09T06:00:07.122Z,79.93
2023-05-09T06:01:07.139Z,79.93
2023-05-09T06:02:07.155Z,79.79
2023-05-09T06:03:07.210Z,79.49
2023-05-09T06:04:07.523Z,79.08
2023-05-09T06:05:07.475Z,78.37
2023-05-09T06:06:07.096Z,78.57
2023-05-09T06:07:07.475Z,79.38
2023-05-09T06:08:07.484Z,78.17
2023-05-09T06:09:07.067Z,78.57
2023-05-09T06:10:07.493Z,78.57
2023-05-09T06:11:07.031Z,78.98
2023-05-09T06:12:07.074Z,78.33
2023-05-09T06:13:06.985Z,79.25
2023-05-09T06:14:07.023Z,79.25
2023-05-09T06:15:07.406Z,79.55
2023-05-09T06:16:18.020Z,79.65
2023-05-09T06:17:07.948Z,79.75
2023-05-09T06:18:06.980Z,79.35
2023-05-09T06:19:07.042Z,78.80
2023-05-09T06:20:07.551Z,77.69
2023-05-09T06:21:07.053Z,76.57
2023-05-09T06:22:06.996Z,77.08
2023-05-09T06:23:06.972Z,77.99
2023-05-09T06:24:14.204Z,77.45
2023-05-09T06:25:10.304Z,76.84
2023-05-09T06:26:06.784Z,75.73
2023-05-09T06:27:06.806Z,75.62
2023-05-09T06:28:06.757Z,76.17
2023-05-09T06:29:06.886Z,77.38
2023-05-09T06:30:23.941Z,77.28
2023-05-09T06:31:07.754Z,77.14
2023-05-09T06:32:07.036Z,75.08
2023-05-09T06:33:06.963Z,75.99
2023-05-09T06:34:06.711Z,74.64
2023-05-09T06:35:06.679Z,74.33
2023-05-09T06:36:07.059Z,74.20
2023-05-09T06:37:14.232Z,73.56
2023-05-09T06:38:06.858Z,73.25
2023-05-09T06:39:07.494Z,73.83
2023-05-09T06:40:06.666Z,72.92
2023-05-09T06:41:06.597Z,73.12
2023-05-09T06:42:06.808Z,73.32
2023-05-09T06:43:06.981Z,72.92
2023-05-09T06:44:06.539Z,72.21
2023-05-09T06:45:07.420Z,72.01
2023-05-09T06:46:06.546Z,72.55
2023-05-09T06:47:06.670Z,73.09
2023-05-09T06:48:07.452Z,73.39
2023-05-09T06:49:06.517Z,74.51
2023-05-09T06:50:06.458Z,75.31
2023-05-09T06:51:06.637Z,73.90
2023-05-09T06:52:07.233Z,74.40
2023-05-09T06:53:06.431Z,74.27
2023-05-09T06:54:07.052Z,71.77
2023-05-09T06:55:06.405Z,72.58
2023-05-09T06:56:07.352Z,70.26
2023-05-09T06:57:06.401Z,68.18
2023-05-09T06:58:06.362Z,65.50
2023-05-09T06:59:06.593Z,64.73
2023-05-09T07:00:06.493Z,62.39
2023-05-09T07:01:06.468Z,64.07
2023-05-09T07:02:06.500Z,62.53
2023-05-09T07:03:06.385Z,62.10
2023-05-09T07:04:07.191Z,62.67
2023-05-09T07:05:06.373Z,62.04
2023-05-09T07:06:06.604Z,61.31
2023-05-09T07:07:06.294Z,59.41
2023-05-09T07:08:06.257Z,60.41
2023-05-09T07:09:06.218Z,59.70
2023-05-09T07:10:11.338Z,59.00
2023-05-09T07:11:07.453Z,59.31
2023-05-09T07:12:06.263Z,59.88
2023-05-09T07:13:06.199Z,59.35
2023-05-09T07:14:06.995Z,58.95
2023-05-09T07:15:06.361Z,59.18
2023-05-09T07:16:06.391Z,60.41
2023-05-09T07:17:22.018Z,60.91
2023-05-09T07:18:07.125Z,61.31
2023-05-09T07:19:10.241Z,60.03
2023-05-09T07:20:06.290Z,61.47
2023-05-09T07:21:06.068Z,61.97
2023-05-09T07:22:06.286Z,61.84
2023-05-09T07:23:06.382Z,61.38
2023-05-09T07:24:06.037Z,58.25
2023-05-09T07:25:06.049Z,58.22
2023-05-09T07:26:06.030Z,58.59
2023-05-09T07:27:06.013Z,57.22
2023-05-09T07:28:05.981Z,59.85
2023-05-09T07:29:06.110Z,59.45
2023-05-09T07:30:05.949Z,60.42
2023-05-09T07:31:06.035Z,58.39
2023-05-09T07:32:06.166Z,59.47
2023-05-09T07:33:06.277Z,57.64
2023-05-09T07:34:05.969Z,57.34
2023-05-09T07:35:05.964Z,57.91
2023-05-09T07:36:05.873Z,56.96
2023-05-09T07:37:06.368Z,58.29
2023-05-09T07:38:05.903Z,58.52
2023-05-09T07:39:05.866Z,57.55
2023-05-09T07:40:05.833Z,60.28
2023-05-09T07:41:05.808Z,60.78
2023-05-09T07:42:06.316Z,62.01
2023-05-09T07:43:06.739Z,62.48
2023-05-09T07:44:05.867Z,59.82
2023-05-09T07:45:05.803Z,59.36
2023-05-09T07:46:05.915Z,59.44
2023-05-09T07:47:05.724Z,58.01
2023-05-09T07:48:05.874Z,58.61
2023-05-09T07:49:05.758Z,57.87
2023-05-09T07:50:05.697Z,57.89
2023-05-09T07:51:05.683Z,58.99
2023-05-09T07:52:05.661Z,58.69
2023-05-09T07:53:06.019Z,59.97
2023-05-09T07:54:06.026Z,58.17
2023-05-09T07:55:05.651Z,60.27
2023-05-09T07:56:05.718Z,58.84
2023-05-09T07:57:05.635Z,61.24
2023-05-09T07:58:06.326Z,58.37
2023-05-09T07:59:05.590Z,60.29
2023-05-09T08:00:05.569Z,59.82
2023-05-09T08:01:05.559Z,61.28
2023-05-09T08:02:05.663Z,62.74
2023-05-09T08:03:05.666Z,63.67
2023-05-09T08:04:05.603Z,65.61
2023-05-09T08:05:05.513Z,65.44
2023-05-09T08:06:05.481Z,65.47
2023-05-09T08:07:05.614Z,64.77
2023-05-09T08:08:06.245Z,66.28
2023-05-09T08:09:06.237Z,67.48
2023-05-09T08:10:05.432Z,66.78
2023-05-09T08:11:05.456Z,69.09
2023-05-09T08:12:05.461Z,67.18
2023-05-09T08:13:05.421Z,67.28
2023-05-09T08:14:05.387Z,67.38
2023-05-09T08:15:05.386Z,66.88
2023-05-09T08:16:05.427Z,66.58
2023-05-09T08:17:05.360Z,67.71
2023-05-09T08:18:05.387Z,66.91
2023-05-09T08:19:05.324Z,67.51
2023-05-09T08:20:05.302Z,68.52
2023-05-09T08:21:05.338Z,67.61
2023-05-09T08:22:06.226Z,67.65
2023-05-09T08:23:05.277Z,67.24
2023-05-09T08:24:06.075Z,69.15
2023-05-09T08:25:05.988Z,66.67
2023-05-09T08:26:05.253Z,68.35
2023-05-09T08:27:05.339Z,69.45
2023-05-09T08:28:05.546Z,69.29
2023-05-09T08:29:05.199Z,69.15
2023-05-09T08:30:05.284Z,68.05
2023-05-09T08:31:05.205Z,67.94
2023-05-09T08:32:05.164Z,68.55
2023-05-09T08:33:05.206Z,68.35
2023-05-09T08:34:05.127Z,69.99
2023-05-09T08:35:05.157Z,68.28
2023-05-09T08:36:05.097Z,69.42
2023-05-09T08:37:05.107Z,69.22
2023-05-09T08:38:05.089Z,68.91
2023-05-09T08:39:05.733Z,70.63
2023-05-09T08:40:05.817Z,70.73
2023-05-09T08:41:05.104Z,70.53
2023-05-09T08:42:05.845Z,70.63
2023-05-09T08:43:05.057Z,71.43
2023-05-09T08:44:05.028Z,72.00
2023-05-09T08:45:05.120Z,71.40
2023-05-09T08:46:04.987Z,69.99
2023-05-09T08:47:05.074Z,68.45
2023-05-09T08:48:04.973Z,68.75
2023-05-09T08:49:05.724Z,68.92
2023-05-09T08:50:04.924Z,69.09
2023-05-09T08:51:04.931Z,69.02
2023-05-09T08:52:04.914Z,65.98
2023-05-09T08:53:04.934Z,65.95
2023-05-09T08:54:05.805Z,65.48
2023-05-09T08:55:04.942Z,65.65
2023-05-09T08:56:04.852Z,66.18
2023-05-09T08:57:04.844Z,65.68
2023-05-09T08:58:04.860Z,65.61
2023-05-09T08:59:04.819Z,66.71
2023-05-09T09:00:05.697Z,67.32
2023-05-09T09:01:05.017Z,67.61
2023-05-09T09:02:04.836Z,68.99
2023-05-09T09:03:04.954Z,67.69
2023-05-09T09:04:04.743Z,66.18
2023-05-09T09:05:04.839Z,67.79
2023-05-09T09:06:04.723Z,66.52
2023-05-09T09:07:04.731Z,68.12
2023-05-09T09:08:04.739Z,66.11
2023-05-09T09:09:04.685Z,67.35
2023-05-09T09:10:04.718Z,69.85
2023-05-09T09:11:04.677Z,69.85
2023-05-09T09:12:04.689Z,69.56
2023-05-09T09:13:04.780Z,69.06
2023-05-09T09:14:04.613Z,67.72
2023-05-09T09:15:04.637Z,69.22
2023-05-09T09:16:04.632Z,67.14
2023-05-09T09:17:04.664Z,68.45
2023-05-09T09:18:06.152Z,68.82
2023-05-09T09:19:04.570Z,70.03
2023-05-09T09:20:05.479Z,68.22
2023-05-09T09:21:04.521Z,68.69
2023-05-09T09:22:05.487Z,68.89
2023-05-09T09:23:04.551Z,67.99
2023-05-09T09:24:04.706Z,66.75
2023-05-09T09:25:05.340Z,67.05
2023-05-09T09:26:05.261Z,67.05
2023-05-09T09:27:04.879Z,66.25
2023-05-09T09:28:04.444Z,65.05
2023-05-09T09:29:04.569Z,69.46
2023-05-09T09:30:04.421Z,65.52
2023-05-09T09:31:04.525Z,64.09
2023-05-09T09:32:04.532Z,64.59
2023-05-09T09:33:05.469Z,65.19
2023-05-09T09:34:04.442Z,66.16
2023-05-09T09:35:04.460Z,64.65
2023-05-09T09:36:04.355Z,65.92
2023-05-09T09:37:04.327Z,63.06
2023-05-09T09:38:04.411Z,63.63
2023-05-09T09:39:04.439Z,63.13
2023-05-09T09:40:04.487Z,61.83
2023-05-09T09:41:05.464Z,62.20
2023-05-09T09:42:05.241Z,62.10
2023-05-09T09:43:04.245Z,61.15
2023-05-09T09:44:04.315Z,59.88
2023-05-09T09:45:04.450Z,62.97
2023-05-09T09:46:04.447Z,60.88
2023-05-09T09:47:04.274Z,61.68
2023-05-09T09:48:04.339Z,62.10
2023-05-09T09:49:04.937Z,61.80
2023-05-09T09:50:04.327Z,61.51
2023-05-09T09:51:04.223Z,60.68
2023-05-09T09:52:04.169Z,62.15
2023-05-09T09:53:04.189Z,60.65
2023-05-09T09:54:04.131Z,61.41
2023-05-09T09:55:05.568Z,61.16
2023-05-09T09:56:04.092Z,58.31
2023-05-09T09:57:04.318Z,56.49
2023-05-09T09:58:04.093Z,56.79
2023-05-09T09:59:04.138Z,57.56
2023-05-09T10:00:04.061Z,56.87
2023-05-09T10:01:04.313Z,54.88
2023-05-09T10:02:07.091Z,56.17
2023-05-09T10:03:04.339Z,57.29
2023-05-09T10:04:04.026Z,56.57
2023-05-09T10:05:03.963Z,56.49
2023-05-09T10:06:03.943Z,58.69
2023-05-09T10:07:03.937Z,58.56
2023-05-09T10:08:03.950Z,56.81
2023-05-09T10:09:03.910Z,56.27
2023-05-09T10:10:03.883Z,56.17
2023-05-09T10:11:04.100Z,57.82
2023-05-09T10:12:04.112Z,59.36
2023-05-09T10:13:03.938Z,59.56
2023-05-09T10:14:03.834Z,61.50
2023-05-09T10:15:03.834Z,58.88
2023-05-09T10:16:03.881Z,56.77
2023-05-09T10:17:03.928Z,58.16
2023-05-09T10:18:03.913Z,56.84
2023-05-09T10:19:03.811Z,54.53
2023-05-09T10:20:04.454Z,55.32
2023-05-09T10:21:03.758Z,54.60
2023-05-09T10:22:04.117Z,54.30
2023-05-09T10:23:04.661Z,54.53
2023-05-09T10:24:03.702Z,54.55
2023-05-09T10:25:03.688Z,56.27
2023-05-09T10:26:03.760Z,56.70
2023-05-09T10:27:03.801Z,57.99
2023-05-09T10:28:03.663Z,56.49
2023-05-09T10:29:03.638Z,57.29
2023-05-09T10:30:03.623Z,57.56
2023-05-09T10:31:03.721Z,58.45
2023-05-09T10:32:03.663Z,56.96
2023-05-09T10:33:03.619Z,55.30
2023-05-09T10:34:03.585Z,56.30
2023-05-09T10:35:03.560Z,58.18
2023-05-09T10:36:03.578Z,58.86
2023-05-09T10:37:03.522Z,56.70
2023-05-09T10:38:03.504Z,57.36
2023-05-09T10:39:03.960Z,56.07
2023-05-09T10:40:03.533Z,54.65
2023-05-09T10:41:03.507Z,59.27
2023-05-09T10:42:04.093Z,55.57
2023-05-09T10:43:04.110Z,56.66
2023-05-09T10:44:03.454Z,54.10
2023-05-09T10:45:03.460Z,54.25
2023-05-09T10:46:03.455Z,55.38
2023-05-09T10:47:03.437Z,56.17
2023-05-09T10:48:03.383Z,58.13
2023-05-09T10:49:03.375Z,57.60
2023-05-09T10:50:03.407Z,58.94
2023-05-09T10:51:04.158Z,53.19
2023-05-09T10:52:03.328Z,52.39
2023-05-09T10:53:03.333Z,56.02
2023-05-09T10:54:03.301Z,56.14
2023-05-09T10:55:03.328Z,57.56
2023-05-09T10:56:03.291Z,58.28
2023-05-09T10:57:03.269Z,58.28
2023-05-09T10:58:04.082Z,58.39
2023-05-09T10:59:03.288Z,57.99
2023-05-09T11:00:03.257Z,57.22
2023-05-09T11:01:03.838Z,57.82
2023-05-09T11:02:03.274Z,57.62
2023-05-09T11:03:03.291Z,58.28
2023-05-09T11:04:03.230Z,57.49
2023-05-09T11:05:03.173Z,57.26
2023-05-09T11:06:03.915Z,57.26
2023-05-09T11:07:03.144Z,58.23
2023-05-09T11:08:03.152Z,56.44
2023-05-09T11:09:03.141Z,57.90
2023-05-09T11:10:03.112Z,57.21
2023-05-09T11:11:03.083Z,59.12
2023-05-09T11:12:03.084Z,57.82
2023-05-09T11:13:03.557Z,57.24
2023-05-09T11:14:03.087Z,59.34
2023-05-09T11:15:03.054Z,60.24
2023-05-09T11:16:04.026Z,59.23
2023-05-09T11:17:03.037Z,60.33
2023-05-09T11:18:03.071Z,58.20
2023-05-09T11:19:02.976Z,59.30
2023-05-09T11:20:03.777Z,58.89
2023-05-09T11:21:02.958Z,59.72
2023-05-09T11:22:02.982Z,60.68
2023-05-09T11:23:03.372Z,62.20
2023-05-09T11:24:02.922Z,62.10
2023-05-09T11:25:02.909Z,63.43
2023-05-09T11:26:02.899Z,60.88
2023-05-09T11:27:02.910Z,63.17
2023-05-09T11:28:03.589Z,62.18
2023-05-09T11:29:03.503Z,62.74
2023-05-09T11:30:02.863Z,62.64
2023-05-09T11:31:02.827Z,62.24
2023-05-09T11:32:02.876Z,62.15
2023-05-09T11:33:02.827Z,60.78
2023-05-09T11:34:02.824Z,60.78
2023-05-09T11:35:03.462Z,61.38
2023-05-09T11:36:03.480Z,60.97
2023-05-09T11:37:03.069Z,61.25
2023-05-09T11:38:02.752Z,61.91
2023-05-09T11:39:02.818Z,61.11
2023-05-09T11:40:02.834Z,61.11
2023-05-09T11:41:02.734Z,61.05
2023-05-09T11:42:02.695Z,60.78
2023-05-09T11:43:02.678Z,60.97
2023-05-09T11:44:02.922Z,63.17
2023-05-09T11:45:02.781Z,60.45
2023-05-09T11:46:02.687Z,61.25
2023-05-09T11:47:02.620Z,60.17
2023-05-09T11:48:02.633Z,62.57
2023-05-09T11:49:02.586Z,61.05
2023-05-09T11:50:03.512Z,60.42
2023-05-09T11:51:02.585Z,60.99
2023-05-09T11:52:02.557Z,60.09
2023-05-09T11:53:02.539Z,60.59
2023-05-09T11:54:02.525Z,61.19
2023-05-09T11:55:02.632Z,60.29
2023-05-09T11:56:02.611Z,61.66
2023-05-09T11:57:02.484Z,59.53
2023-05-09T11:58:02.506Z,60.11
2023-05-09T11:59:03.297Z,59.51
2023-05-09T12:00:02.485Z,56.85
2023-05-09T12:01:02.996Z,58.07
2023-05-09T12:02:02.472Z,60.66
2023-05-09T12:03:02.459Z,59.36
2023-05-09T12:04:02.522Z,59.66
2023-05-09T12:05:02.414Z,58.37
2023-05-09T12:06:02.421Z,60.19
2023-05-09T12:07:03.097Z,60.56
2023-05-09T12:08:03.294Z,58.76
2023-05-09T12:09:02.349Z,58.76
2023-05-09T12:10:02.376Z,58.27
2023-05-09T12:11:02.416Z,59.19
2023-05-09T12:12:02.350Z,59.12
2023-05-09T12:13:02.831Z,61.65
2023-05-09T12:14:02.300Z,61.35
2023-05-09T12:15:02.293Z,62.24
2023-05-09T12:16:02.318Z,61.32
2023-05-09T12:17:02.220Z,60.32
2023-05-09T12:18:02.338Z,59.65
2023-05-09T12:19:02.222Z,58.38
2023-05-09T12:20:03.132Z,59.68
2023-05-09T12:21:02.176Z,62.10
2023-05-09T12:22:02.237Z,61.71
2023-05-09T12:23:02.166Z,62.50
2023-05-09T12:24:02.207Z,63.47
2023-05-09T12:25:02.158Z,60.68
2023-05-09T12:26:02.124Z,61.87
2023-05-09T12:27:02.089Z,60.71
2023-05-09T12:28:02.135Z,60.91
2023-05-09T12:29:02.249Z,62.07
2023-05-09T12:30:02.074Z,61.27
2023-05-09T12:31:02.213Z,61.27
2023-05-09T12:32:02.446Z,61.94
2023-05-09T12:33:03.759Z,60.35
2023-05-09T12:34:02.609Z,62.12
2023-05-09T12:35:01.977Z,59.89
2023-05-09T12:36:02.185Z,58.50
2023-05-09T12:37:01.979Z,59.09
2023-05-09T12:38:01.953Z,58.33
2023-05-09T12:39:02.080Z,58.03
2023-05-09T12:40:02.454Z,61.41
2023-05-09T12:41:03.628Z,58.33
2023-05-09T12:42:02.364Z,59.62
2023-05-09T12:43:01.873Z,60.19
2023-05-09T12:44:01.886Z,57.77
2023-05-09T12:45:02.781Z,60.24
2023-05-09T12:46:02.686Z,56.35
2023-05-09T12:47:01.892Z,58.54
2023-05-09T12:48:02.456Z,58.84
2023-05-09T12:49:01.951Z,57.64
2023-05-09T12:50:01.832Z,59.64
2023-05-09T12:51:02.413Z,57.84
2023-05-09T12:52:04.456Z,59.08